createdAt,value
2023-03-27T00:01:35.947Z,3.70
2023-03-27T00:04:33.187Z,4.50
2023-03-27T00:07:30.029Z,1.37
2023-03-27T00:10:27.563Z,3.63
2023-03-27T00:13:18.325Z,0.57
2023-03-27T00:16:14.125Z,0.53
2023-03-27T00:19:07.504Z,2.07
2023-03-27T00:21:57.200Z,0.77
2023-03-27T00:24:46.723Z,0.60
2023-03-27T00:27:40.154Z,2.63
2023-03-27T00:30:29.522Z,0.63
2023-03-27T00:33:23.200Z,0.67
2023-03-27T00:36:19.656Z,0.37
2023-03-27T00:39:07.523Z,0.30
2023-03-27T00:41:58.951Z,3.30
2023-03-27T00:44:50.154Z,0.87
2023-03-27T00:47:44.172Z,2.33
2023-03-27T00:50:37.116Z,0.47
2023-03-27T00:53:31.209Z,0.63
2023-03-27T00:56:26.016Z,0.30
2023-03-27T00:59:21.626Z,0.30
2023-03-27T01:02:11.040Z,0.20
2023-03-27T01:05:02.721Z,1.13
2023-03-27T01:08:00.628Z,0.30
2023-03-27T01:11:01.698Z,0.83
2023-03-27T01:14:08.535Z,0.30
2023-03-27T01:17:15.565Z,0.50
2023-03-27T01:20:27.518Z,0.40
2023-03-27T01:23:59.751Z,0.43
2023-03-27T01:27:06.551Z,0.60
2023-03-27T01:30:09.251Z,0.77
2023-03-27T01:33:39.074Z,0.60
2023-03-27T01:36:52.716Z,0.73
2023-03-27T01:39:56.206Z,0.93
2023-03-27T01:42:54.547Z,0.40
2023-03-27T01:45:48.893Z,0.60
2023-03-27T01:48:44.900Z,0.73
2023-03-27T01:51:38.243Z,1.50
2023-03-27T01:54:29.033Z,1.63
2023-03-27T01:57:25.362Z,0.40
2023-03-27T02:00:22.708Z,1.50
2023-03-27T02:03:16.063Z,0.60
2023-03-27T02:06:10.342Z,0.80
2023-03-27T02:09:02.954Z,2.17
2023-03-27T02:12:02.250Z,1.13
2023-03-27T02:14:58.064Z,1.77
2023-03-27T02:18:10.448Z,0.97
2023-03-27T02:21:03.379Z,1.77
2023-03-27T02:23:57.922Z,1.23
2023-03-27T02:26:46.781Z,0.93
2023-03-27T02:30:01.775Z,0.87
2023-03-27T02:33:03.174Z,0.40
2023-03-27T02:36:03.700Z,1.13
2023-03-27T02:39:06.946Z,1.57
2023-03-27T02:42:09.119Z,1.67
2023-03-27T02:45:04.826Z,1.20
2023-03-27T02:48:02.265Z,2.07
2023-03-27T02:51:00.095Z,2.67
2023-03-27T02:54:00.487Z,1.67
2023-03-27T02:56:55.460Z,2.47
2023-03-27T02:59:51.222Z,1.40
2023-03-27T03:02:46.238Z,1.97
2023-03-27T03:05:44.713Z,2.33
2023-03-27T03:08:41.634Z,3.17
2023-03-27T03:11:30.401Z,0.93
2023-03-27T03:14:27.835Z,1.20
2023-03-27T03:17:20.237Z,1.27
2023-03-27T03:20:13.574Z,1.97
2023-03-27T03:23:07.958Z,1.70
2023-03-27T03:25:57.037Z,2.80
2023-03-27T03:29:00.187Z,1.83
2023-03-27T03:31:52.890Z,1.97
2023-03-27T03:34:43.118Z,4.30
2023-03-27T03:37:39.184Z,3.97
2023-03-27T03:40:31.713Z,6.43
2023-03-27T03:43:22.050Z,7.37
2023-03-27T03:46:10.754Z,8.30
2023-03-27T03:49:01.261Z,4.57
2023-03-27T03:52:04.365Z,5.60
2023-03-27T03:54:56.800Z,5.37
2023-03-27T03:57:48.926Z,10.10
2023-03-27T04:00:43.709Z,7.07
2023-03-27T04:03:32.985Z,6.73
2023-03-27T04:06:21.816Z,8.77
2023-03-27T04:09:10.173Z,13.30
2023-03-27T04:12:01.872Z,10.03
2023-03-27T04:14:55.303Z,10.87
2023-03-27T04:17:48.985Z,9.40
2023-03-27T04:20:43.378Z,7.63
2023-03-27T04:23:42.860Z,9.87
2023-03-27T04:26:31.807Z,9.63
2023-03-27T04:29:23.351Z,13.80
2023-03-27T04:32:23.124Z,10.03
2023-03-27T04:35:12.512Z,13.03
2023-03-27T04:38:06.869Z,8.57
2023-03-27T04:40:56.929Z,12.57
2023-03-27T04:43:49.109Z,10.50
2023-03-27T04:46:37.378Z,8.60
2023-03-27T04:49:39.092Z,12.17
2023-03-27T04:52:29.837Z,10.53
2023-03-27T04:55:19.273Z,9.27
2023-03-27T04:58:10.135Z,6.80
2023-03-27T05:01:00.305Z,7.80
2023-03-27T05:03:56.076Z,10.40
2023-03-27T05:06:50.426Z,10.10
2023-03-27T05:09:42.842Z,10.53
2023-03-27T05:12:37.081Z,4.73
2023-03-27T05:15:29.025Z,8.73
2023-03-27T05:18:21.407Z,5.60
2023-03-27T05:21:16.848Z,10.43
2023-03-27T05:24:12.089Z,9.87
2023-03-27T05:27:01.726Z,8.00
2023-03-27T05:29:54.336Z,8.93
2023-03-27T05:32:49.315Z,19.23
2023-03-27T05:35:45.711Z,7.70
2023-03-27T05:38:37.223Z,10.80
2023-03-27T05:41:34.434Z,10.90
2023-03-27T05:44:24.217Z,16.53
2023-03-27T05:47:15.242Z,10.83
2023-03-27T05:50:04.674Z,8.73
2023-03-27T05:53:04.037Z,12.07
2023-03-27T05:56:02.867Z,9.47
2023-03-27T05:58:56.197Z,14.43
2023-03-27T06:02:05.778Z,15.63
2023-03-27T06:04:54.207Z,9.70
2023-03-27T06:07:45.798Z,11.80
2023-03-27T06:10:34.672Z,7.83
2023-03-27T06:13:24.428Z,14.50
2023-03-27T06:16:15.554Z,12.07
2023-03-27T06:19:04.768Z,17.73
2023-03-27T06:21:57.651Z,9.40
2023-03-27T06:24:46.370Z,10.23
2023-03-27T06:27:34.519Z,9.77
2023-03-27T06:30:25.794Z,10.07
2023-03-27T06:33:17.799Z,11.97
2023-03-27T06:36:10.519Z,8.57
2023-03-27T06:38:58.757Z,10.50
2023-03-27T06:41:46.581Z,13.43
2023-03-27T06:44:35.422Z,8.43
2023-03-27T06:47:24.128Z,12.57
2023-03-27T06:50:17.620Z,11.27
2023-03-27T06:53:15.842Z,12.53
2023-03-27T06:56:12.742Z,13.83
2023-03-27T06:59:00.694Z,11.37
2023-03-27T07:01:49.199Z,12.53
2023-03-27T07:04:39.919Z,13.23
2023-03-27T07:07:29.857Z,15.70
2023-03-27T07:10:18.137Z,13.33
2023-03-27T07:13:16.331Z,14.37
2023-03-27T07:16:05.059Z,10.93
2023-03-27T07:18:53.840Z,12.73
2023-03-27T07:21:41.336Z,15.70
2023-03-27T07:24:31.759Z,11.47
2023-03-27T07:27:20.571Z,10.90
2023-03-27T07:30:12.624Z,11.23
2023-03-27T07:33:04.391Z,12.07
2023-03-27T07:35:53.019Z,17.33
2023-03-27T07:38:42.972Z,10.53
2023-03-27T07:41:32.952Z,9.50
2023-03-27T07:44:24.179Z,14.07
2023-03-27T07:47:12.642Z,13.17
2023-03-27T07:50:08.396Z,12.70
2023-03-27T07:53:00.221Z,8.37
2023-03-27T07:55:48.868Z,9.17
2023-03-27T07:58:39.572Z,10.00
2023-03-27T08:01:27.894Z,9.47
2023-03-27T08:04:16.603Z,15.90
2023-03-27T08:07:04.655Z,11.97
2023-03-27T08:09:57.752Z,7.70
2023-03-27T08:12:49.605Z,7.87
2023-03-27T08:15:42.076Z,9.10
2023-03-27T08:18:37.064Z,8.37
2023-03-27T08:21:28.243Z,13.93
2023-03-27T08:24:19.397Z,10.17
2023-03-27T08:27:08.160Z,9.70
2023-03-27T08:29:56.604Z,9.47
2023-03-27T08:32:45.875Z,14.47
2023-03-27T08:35:34.107Z,14.03
2023-03-27T08:38:26.960Z,11.73
2023-03-27T08:41:28.371Z,7.67
2023-03-27T08:44:19.060Z,7.90
2023-03-27T08:47:13.817Z,8.67
2023-03-27T08:50:07.279Z,4.73
2023-03-27T08:52:54.475Z,5.40
2023-03-27T08:55:43.795Z,9.77
2023-03-27T08:58:33.102Z,5.33
2023-03-27T09:01:26.817Z,8.23
2023-03-27T09:04:25.462Z,8.47
2023-03-27T09:07:27.910Z,6.20
2023-03-27T09:10:19.307Z,8.00
2023-03-27T09:13:15.053Z,9.10
2023-03-27T09:16:05.080Z,5.13
2023-03-27T09:19:00.967Z,3.63
2023-03-27T09:21:55.682Z,6.23
2023-03-27T09:24:48.238Z,7.83
2023-03-27T09:27:37.814Z,2.97
2023-03-27T09:30:27.610Z,5.53
2023-03-27T09:33:14.907Z,3.67
2023-03-27T09:36:02.261Z,5.60
2023-03-27T09:39:00.358Z,1.90
2023-03-27T09:41:52.444Z,4.15
2023-03-27T09:44:42.933Z,5.35
2023-03-27T09:47:35.653Z,7.07
2023-03-27T09:50:29.731Z,4.55
2023-03-27T09:53:19.220Z,6.47
2023-03-27T09:56:13.475Z,8.20
2023-03-27T09:59:09.264Z,9.93
2023-03-27T10:01:59.375Z,3.13
2023-03-27T10:05:00.163Z,9.27
2023-03-27T10:07:47.668Z,5.00
2023-03-27T10:10:42.075Z,3.60
2023-03-27T10:13:30.912Z,5.30
2023-03-27T10:16:22.015Z,4.93
2023-03-27T10:19:22.017Z,2.17
2023-03-27T10:22:19.465Z,3.20
2023-03-27T10:25:17.857Z,6.77
2023-03-27T10:28:18.762Z,6.03
2023-03-27T10:31:11.160Z,3.97
2023-03-27T10:34:02.121Z,8.70
2023-03-27T10:36:49.462Z,9.37
2023-03-27T10:39:38.830Z,4.67
2023-03-27T10:42:28.830Z,4.03
2023-03-27T10:45:18.235Z,4.00
2023-03-27T10:48:09.131Z,5.10
2023-03-27T10:51:05.655Z,1.47
2023-03-27T10:53:57.873Z,3.40
2023-03-27T10:56:54.711Z,8.23
2023-03-27T10:59:45.192Z,3.77
2023-03-27T11:02:39.008Z,4.33
2023-03-27T11:05:30.642Z,5.77
2023-03-27T11:08:24.953Z,2.40
2023-03-27T11:11:19.201Z,2.80
2023-03-27T11:14:13.621Z,3.47
2023-03-27T11:17:05.540Z,7.23
2023-03-27T11:19:56.891Z,2.60
2023-03-27T11:22:48.013Z,5.13
2023-03-27T11:25:44.897Z,9.37
2023-03-27T11:28:43.062Z,3.33
2023-03-27T11:31:40.257Z,4.90
2023-03-27T11:34:35.555Z,2.47
2023-03-27T11:37:27.352Z,2.60
2023-03-27T11:40:20.875Z,3.23
2023-03-27T11:43:11.945Z,3.13
2023-03-27T11:46:17.128Z,6.27
2023-03-27T11:49:14.999Z,2.67
2023-03-27T11:52:14.221Z,2.30
2023-03-27T11:55:23.873Z,4.27
2023-03-27T11:58:26.935Z,3.83
2023-03-27T12:01:23.153Z,2.60
2023-03-27T12:04:29.681Z,5.30
2023-03-27T12:07:35.836Z,5.67
2023-03-27T12:10:32.143Z,5.70
2023-03-27T12:14:01.671Z,2.97
2023-03-27T12:17:05.726Z,8.30
2023-03-27T12:20:21.247Z,8.70
2023-03-27T12:23:29.387Z,3.90
2023-03-27T12:26:45.587Z,3.13
2023-03-27T12:29:53.888Z,5.23
2023-03-27T12:33:07.594Z,6.67
2023-03-27T12:36:01.001Z,4.53
2023-03-27T12:38:49.905Z,4.30
2023-03-27T12:41:48.506Z,4.67
2023-03-27T12:45:07.283Z,5.73
2023-03-27T12:48:19.789Z,4.63
2023-03-27T12:51:17.880Z,5.57
2023-03-27T12:54:25.681Z,4.53
2023-03-27T12:57:18.326Z,5.00
2023-03-27T13:00:21.844Z,5.17
2023-03-27T13:03:37.800Z,2.63
2023-03-27T13:06:36.746Z,3.70
2023-03-27T13:09:42.726Z,5.73
2023-03-27T13:13:01.063Z,8.70
2023-03-27T13:16:30.922Z,4.40
2023-03-27T13:19:36.383Z,2.70
2023-03-27T13:22:37.455Z,2.83
2023-03-27T13:25:34.680Z,4.30
2023-03-27T13:28:36.339Z,3.53
2023-03-27T13:32:09.564Z,3.10
2023-03-27T13:35:08.939Z,9.83
2023-03-27T13:38:02.945Z,7.73
2023-03-27T13:40:51.674Z,4.50
2023-03-27T13:43:40.088Z,1.07
2023-03-27T13:46:31.523Z,4.27
2023-03-27T13:49:32.472Z,2.30
2023-03-27T13:53:01.673Z,5.90
2023-03-27T13:56:21.754Z,4.17
2023-03-27T13:59:42.243Z,2.67
2023-03-27T14:03:03.248Z,2.50
2023-03-27T14:06:21.918Z,2.43
2023-03-27T14:09:19.355Z,5.23
2023-03-27T14:12:15.815Z,3.40
2023-03-27T14:15:22.778Z,5.90
2023-03-27T14:18:38.743Z,3.23
2023-03-27T14:21:38.417Z,1.77
2023-03-27T14:24:35.054Z,2.83
2023-03-27T14:27:24.025Z,5.90
2023-03-27T14:30:17.496Z,2.10
2023-03-27T14:33:09.955Z,2.63
2023-03-27T14:36:02.559Z,5.20
2023-03-27T14:38:51.734Z,3.57
2023-03-27T14:41:47.736Z,4.37
2023-03-27T14:44:38.198Z,4.00
2023-03-27T14:47:27.388Z,6.23
2023-03-27T14:50:16.280Z,2.03
2023-03-27T14:53:10.270Z,3.33
2023-03-27T14:56:05.964Z,3.90
2023-03-27T14:58:59.855Z,4.60
2023-03-27T15:01:50.479Z,1.83
2023-03-27T15:04:41.476Z,7.03
2023-03-27T15:07:30.725Z,6.03
2023-03-27T15:10:22.826Z,1.10
2023-03-27T15:13:13.096Z,4.33
2023-03-27T15:16:01.224Z,0.70
2023-03-27T15:19:00.643Z,2.97
2023-03-27T15:21:57.816Z,5.60
2023-03-27T15:24:52.682Z,4.63
2023-03-27T15:27:43.775Z,4.47
2023-03-27T15:30:37.856Z,2.90
2023-03-27T15:33:34.773Z,1.33
2023-03-27T15:36:28.679Z,3.30
2023-03-27T15:39:22.507Z,5.80
2023-03-27T15:42:15.478Z,3.13
2023-03-27T15:45:04.694Z,2.50
2023-03-27T15:48:05.742Z,9.30
2023-03-27T15:55:41.870Z,4.80
2023-03-27T15:58:34.239Z,3.67
2023-03-27T16:01:23.666Z,2.93
2023-03-27T16:04:16.492Z,4.57
2023-03-27T16:07:10.974Z,4.63
2023-03-27T16:10:02.603Z,2.43
2023-03-27T16:12:52.094Z,2.03
2023-03-27T16:15:41.874Z,3.40
2023-03-27T16:18:33.219Z,4.37
2023-03-27T16:21:26.342Z,4.30
2023-03-27T16:24:13.238Z,3.50
2023-03-27T16:27:00.034Z,2.90
2023-03-27T16:29:48.480Z,2.27
2023-03-27T16:32:36.188Z,3.33
2023-03-27T16:51:07.786Z,5.03
2023-03-27T16:53:55.080Z,4.70
2023-03-27T16:56:41.935Z,3.47
2023-03-27T16:59:29.323Z,3.77
2023-03-27T17:02:16.693Z,4.07
2023-03-27T17:05:04.267Z,5.90
2023-03-27T17:07:52.589Z,1.63
2023-03-27T17:10:40.026Z,5.73
2023-03-27T17:13:27.052Z,4.43
2023-03-27T17:16:15.389Z,3.00
2023-03-27T17:19:02.824Z,7.47
2023-03-27T17:21:49.516Z,1.60
2023-03-27T17:24:49.329Z,3.43
2023-03-27T17:27:42.632Z,4.63
2023-03-27T17:30:38.509Z,3.20
2023-03-27T17:33:27.915Z,2.97
2023-03-27T17:36:21.639Z,2.20
2023-03-27T17:39:14.096Z,4.37
2023-03-27T17:42:02.354Z,2.27
2023-03-27T17:44:49.473Z,4.77
2023-03-27T17:47:36.613Z,5.37
2023-03-27T17:50:23.647Z,4.30
2023-03-27T17:53:10.610Z,3.43
2023-03-27T17:55:58.274Z,3.83
2023-03-27T17:58:48.845Z,3.33
2023-03-27T18:01:35.624Z,4.30
2023-03-27T18:04:22.912Z,4.93
2023-03-27T18:07:09.726Z,6.27
2023-03-27T18:09:56.629Z,3.93
2023-03-27T18:12:43.451Z,3.07
2023-03-27T18:15:32.236Z,1.43
2023-03-27T18:18:18.966Z,2.37
2023-03-27T18:21:07.006Z,3.90
2023-03-27T18:23:56.045Z,2.40
2023-03-27T18:26:42.935Z,3.27
2023-03-27T18:29:30.951Z,3.20
2023-03-27T18:32:20.702Z,4.77
2023-03-27T18:35:09.541Z,3.83
2023-03-27T18:37:56.677Z,3.37
2023-03-27T18:40:43.508Z,3.80
2023-03-27T18:43:30.306Z,1.43
2023-03-27T18:46:17.697Z,2.93
2023-03-27T18:49:13.926Z,3.60
2023-03-27T18:52:09.968Z,4.73
2023-03-27T18:54:56.890Z,5.40
2023-03-27T18:57:45.181Z,3.17
2023-03-27T19:00:32.207Z,5.77
2023-03-27T19:03:21.054Z,5.50
2023-03-27T19:06:11.753Z,2.30
2023-03-27T19:08:58.847Z,5.40
2023-03-27T19:11:45.902Z,5.57
2023-03-27T19:14:33.033Z,2.70
2023-03-27T19:17:23.236Z,2.93
2023-03-27T19:20:11.281Z,6.00
2023-03-27T19:22:59.657Z,3.23
2023-03-27T19:25:49.497Z,3.73
2023-03-27T19:28:37.112Z,3.67
2023-03-27T19:31:24.279Z,2.67
2023-03-27T19:34:11.593Z,5.80
2023-03-27T19:36:58.305Z,5.90
2023-03-27T19:39:46.404Z,7.20
2023-03-27T19:42:34.173Z,3.33
2023-03-27T19:45:21.167Z,3.43
2023-03-27T19:48:08.230Z,5.37
2023-03-27T19:50:58.996Z,4.43
2023-03-27T19:53:46.699Z,3.47
2023-03-27T19:56:35.185Z,1.47
2023-03-27T19:59:30.392Z,2.80
2023-03-27T20:02:18.356Z,4.17
2023-03-27T20:05:05.382Z,3.40
2023-03-27T20:07:52.062Z,3.53
2023-03-27T20:10:38.578Z,3.37
2023-03-27T20:13:26.855Z,4.70
2023-03-27T20:16:15.021Z,1.70
2023-03-27T20:19:04.841Z,4.07
2023-03-27T20:21:52.942Z,4.30
2023-03-27T20:24:40.281Z,2.70
2023-03-27T20:27:27.378Z,3.50
2023-03-27T20:30:15.716Z,7.10
2023-03-27T20:33:03.237Z,4.80
2023-03-27T20:35:49.964Z,5.03
2023-03-27T20:38:37.120Z,3.70
2023-03-27T20:41:27.232Z,3.83
2023-03-27T20:44:16.407Z,4.27
2023-03-27T20:47:11.002Z,2.63
2023-03-27T20:49:59.082Z,2.63
2023-03-27T20:52:46.527Z,3.67
2023-03-27T20:55:37.544Z,3.83
2023-03-27T20:58:33.324Z,3.70
2023-03-27T21:01:20.727Z,7.00
2023-03-27T21:04:09.796Z,4.87
2023-03-27T21:06:56.974Z,8.27
2023-03-27T21:09:44.254Z,5.90
2023-03-27T21:12:30.949Z,2.90
2023-03-27T21:15:18.136Z,3.37
2023-03-27T21:18:05.508Z,4.90
2023-03-27T21:20:54.750Z,3.03
2023-03-27T21:23:41.554Z,4.43
2023-03-27T21:26:28.600Z,3.13
2023-03-27T21:29:15.676Z,2.07
2023-03-27T21:32:02.619Z,4.07
2023-03-27T21:34:49.518Z,4.20
2023-03-27T21:37:38.014Z,4.50
2023-03-27T21:40:24.949Z,10.77
2023-03-27T21:43:13.170Z,7.50
2023-03-27T21:46:02.212Z,4.03
2023-03-27T21:48:50.006Z,3.33
2023-03-27T21:51:37.146Z,7.40
2023-03-27T21:54:25.933Z,3.73
2023-03-27T21:57:12.790Z,3.77
2023-03-27T21:59:59.924Z,2.77
2023-03-27T22:02:46.853Z,2.97
2023-03-27T22:05:37.274Z,3.13
2023-03-27T22:08:25.315Z,3.57
2023-03-27T22:11:16.652Z,3.80
2023-03-27T22:14:04.048Z,4.43
2023-03-27T22:16:51.211Z,6.20
2023-03-27T22:19:37.844Z,7.03
2023-03-27T22:22:25.238Z,3.20
2023-03-27T22:25:12.213Z,5.90
2023-03-27T22:28:01.830Z,4.57
2023-03-27T22:30:49.075Z,4.97
2023-03-27T22:33:35.956Z,4.07
2023-03-27T22:36:23.419Z,4.23
2023-03-27T22:39:10.272Z,4.77
2023-03-27T22:41:57.132Z,4.27
2023-03-27T22:44:45.511Z,4.67
2023-03-27T22:47:32.893Z,6.83
2023-03-27T22:50:19.812Z,3.70
2023-03-27T22:53:06.970Z,4.50
2023-03-27T22:55:55.049Z,5.63
2023-03-27T22:58:41.728Z,5.27
2023-03-27T23:01:30.021Z,8.60
2023-03-27T23:04:17.079Z,4.07
2023-03-27T23:07:04.277Z,4.17
2023-03-27T23:09:51.553Z,7.40
2023-03-27T23:12:38.519Z,6.83
2023-03-27T23:15:30.147Z,7.07
2023-03-27T23:18:21.798Z,5.90
2023-03-27T23:21:10.348Z,6.90
2023-03-27T23:23:57.557Z,6.53
2023-03-27T23:26:44.039Z,4.90
2023-03-27T23:29:31.041Z,3.73
2023-03-27T23:32:17.510Z,4.77
2023-03-27T23:35:06.441Z,6.47
2023-03-27T23:37:53.477Z,5.57
2023-03-27T23:40:40.270Z,4.90
2023-03-27T23:43:28.625Z,4.43
2023-03-27T23:46:15.968Z,8.73
2023-03-27T23:49:02.672Z,2.10
2023-03-27T23:51:51.160Z,6.80
2023-03-27T23:54:38.325Z,5.70
2023-03-27T23:57:25.738Z,7.13
